createdAt,value
2022-08-22T00:00:10.940Z,28.37
2022-08-22T00:00:43.711Z,28.31
2022-08-22T00:01:15.161Z,28.36
2022-08-22T00:01:45.869Z,28.36
2022-08-22T00:02:19.534Z,28.36
2022-08-22T00:02:42.951Z,29.89
2022-08-22T00:02:43.290Z,29.84
2022-08-22T00:02:46.943Z,29.58
2022-08-22T00:02:47.028Z,29.50
2022-08-22T00:02:47.240Z,29.39
2022-08-22T00:02:48.340Z,29.98
2022-08-22T00:02:53.247Z,29.73
2022-08-22T00:02:54.938Z,29.26
2022-08-22T00:02:56.069Z,29.89
2022-08-22T00:02:59.228Z,28.50
2022-08-22T00:03:00.025Z,29.84
2022-08-22T00:03:00.232Z,29.80
2022-08-22T00:03:00.350Z,29.45
2022-08-22T00:03:02.139Z,29.95
2022-08-22T00:03:02.491Z,29.68
2022-08-22T00:03:02.621Z,29.91
2022-08-22T00:03:03.230Z,30.00
2022-08-22T00:03:10.646Z,29.17
2022-08-22T00:03:10.809Z,29.01
2022-08-22T00:03:16.107Z,28.69
2022-08-22T00:03:18.502Z,28.31
2022-08-22T00:03:51.715Z,28.24
2022-08-22T00:04:22.256Z,28.28
2022-08-22T00:04:55.849Z,28.24
2022-08-22T00:05:28.996Z,28.22
2022-08-22T00:06:11.596Z,28.21
2022-08-22T00:06:43.659Z,28.20
2022-08-22T00:07:12.591Z,28.20
2022-08-22T00:07:44.578Z,28.18
2022-08-22T00:08:09.613Z,28.22
2022-08-22T00:08:41.717Z,28.20
2022-08-22T00:09:19.680Z,28.21
2022-08-22T00:09:48.464Z,28.19
2022-08-22T00:10:23.572Z,28.21
2022-08-22T00:10:55.368Z,28.20
2022-08-22T00:11:28.399Z,28.22
2022-08-22T00:11:55.980Z,28.19
2022-08-22T00:12:23.812Z,28.24
2022-08-22T00:12:52.504Z,28.20
2022-08-22T00:13:22.616Z,28.20
2022-08-22T00:14:01.368Z,28.19
2022-08-22T00:14:35.335Z,28.19
2022-08-22T00:15:03.805Z,28.17
2022-08-22T00:15:43.682Z,28.11
2022-08-22T00:16:12.497Z,28.17
2022-08-22T00:16:42.400Z,28.15
2022-08-22T00:17:17.183Z,28.14
2022-08-22T00:17:47.219Z,28.18
2022-08-22T00:18:13.757Z,28.18
2022-08-22T00:18:41.034Z,28.18
2022-08-22T00:19:13.809Z,28.17
2022-08-22T00:19:47.913Z,28.18
2022-08-22T00:20:28.377Z,28.14
2022-08-22T00:21:08.745Z,28.19
2022-08-22T00:21:39.946Z,28.15
2022-08-22T00:22:10.944Z,28.17
2022-08-22T00:22:48.186Z,28.15
2022-08-22T00:23:17.392Z,28.13
2022-08-22T00:23:48.081Z,28.15
2022-08-22T00:24:24.924Z,28.11
2022-08-22T00:24:54.763Z,28.10
2022-08-22T00:25:33.328Z,28.11
2022-08-22T00:26:02.342Z,28.07
2022-08-22T00:27:27.744Z,28.05
2022-08-22T00:27:55.006Z,28.05
2022-08-22T00:28:21.314Z,28.06
2022-08-22T00:28:49.948Z,28.05
2022-08-22T00:29:15.052Z,28.05
2022-08-22T00:29:42.112Z,28.02
2022-08-22T00:30:09.908Z,28.05
2022-08-22T00:30:38.739Z,28.04
2022-08-22T00:31:09.851Z,28.04
2022-08-22T00:31:35.288Z,28.02
2022-08-22T00:32:06.585Z,28.01
2022-08-22T00:32:33.822Z,28.03
2022-08-22T00:33:03.647Z,28.03
2022-08-22T00:33:39.115Z,27.98
2022-08-22T00:34:04.656Z,27.98
2022-08-22T00:34:37.682Z,27.97
2022-08-22T00:35:02.797Z,27.98
2022-08-22T00:35:36.404Z,27.95
2022-08-22T00:36:08.601Z,27.93
2022-08-22T00:36:36.004Z,27.96
2022-08-22T00:37:04.301Z,27.93
2022-08-22T00:37:32.941Z,27.92
2022-08-22T00:38:03.059Z,27.90
2022-08-22T00:38:28.764Z,27.90
2022-08-22T00:38:58.984Z,27.90
2022-08-22T00:39:36.646Z,27.93
2022-08-22T00:40:04.587Z,27.90
2022-08-22T00:40:50.680Z,27.91
2022-08-22T00:41:28.779Z,27.89
2022-08-22T00:42:31.647Z,27.88
2022-08-22T00:43:18.768Z,27.88
2022-08-22T00:44:13.637Z,27.87
2022-08-22T00:44:56.258Z,27.90
2022-08-22T00:45:47.561Z,27.91
2022-08-22T00:46:40.456Z,27.88
2022-08-22T00:47:16.521Z,27.90
2022-08-22T00:47:53.924Z,27.90
2022-08-22T00:48:50.885Z,27.91
2022-08-22T00:49:31.479Z,27.92
2022-08-22T00:50:20.549Z,27.95
2022-08-22T00:51:10.827Z,27.96
2022-08-22T00:51:57.827Z,27.93
2022-08-22T00:52:40.957Z,27.91
2022-08-22T00:53:27.392Z,27.88
2022-08-22T00:53:59.994Z,27.88
2022-08-22T00:54:37.349Z,27.86
2022-08-22T00:55:27.932Z,27.79
2022-08-22T00:56:06.836Z,27.78
2022-08-22T00:56:56.847Z,27.78
2022-08-22T00:57:37.084Z,27.78
2022-08-22T00:58:22.360Z,27.78
2022-08-22T00:59:23.444Z,27.80
2022-08-22T01:00:16.286Z,27.75
2022-08-22T01:00:44.896Z,27.71
2022-08-22T01:01:09.818Z,27.68
2022-08-22T01:01:37.593Z,27.72
2022-08-22T01:02:11.030Z,27.72
2022-08-22T01:02:56.643Z,27.71
2022-08-22T01:03:45.364Z,27.71
2022-08-22T01:04:34.141Z,27.72
2022-08-22T01:05:21.944Z,27.70
2022-08-22T01:05:59.345Z,27.69
2022-08-22T01:06:30.155Z,27.66
2022-08-22T01:07:02.485Z,27.68
2022-08-22T01:07:43.101Z,27.70
2022-08-22T01:08:21.102Z,27.69
2022-08-22T01:08:56.831Z,27.72
2022-08-22T01:09:33.720Z,27.73
2022-08-22T01:10:14.518Z,27.73
2022-08-22T01:10:54.386Z,27.75
2022-08-22T01:11:42.210Z,27.69
2022-08-22T01:12:31.278Z,27.71
2022-08-22T01:13:10.787Z,27.69
2022-08-22T01:13:48.181Z,27.70
2022-08-22T01:14:34.786Z,27.71
2022-08-22T01:15:03.061Z,27.68
2022-08-22T01:15:28.685Z,27.67
2022-08-22T01:16:01.920Z,27.67
2022-08-22T01:16:55.868Z,27.66
2022-08-22T01:17:44.130Z,27.67
2022-08-22T01:18:29.256Z,27.64
2022-08-22T01:19:08.480Z,27.61
2022-08-22T01:20:09.101Z,27.60
2022-08-22T01:21:07.786Z,27.57
2022-08-22T01:22:00.862Z,27.52
2022-08-22T01:23:02.151Z,27.47
2022-08-22T01:24:04.316Z,27.46
2022-08-22T01:25:12.777Z,27.44
2022-08-22T01:26:19.469Z,27.40
2022-08-22T01:27:15.884Z,27.39
2022-08-22T01:28:03.427Z,27.36
2022-08-22T01:28:50.732Z,27.36
2022-08-22T01:29:52.101Z,27.34
2022-08-22T01:30:55.494Z,27.34
2022-08-22T01:31:54.812Z,27.32
2022-08-22T01:32:49.026Z,27.30
2022-08-22T01:34:00.910Z,27.23
2022-08-22T01:34:41.987Z,27.29
2022-08-22T01:35:37.884Z,27.29
2022-08-22T01:36:38.535Z,27.25
2022-08-22T01:37:23.959Z,27.26
2022-08-22T01:38:23.679Z,27.22
2022-08-22T01:39:03.331Z,27.22
2022-08-22T01:39:45.747Z,27.19
2022-08-22T01:40:53.770Z,27.15
2022-08-22T01:41:54.908Z,27.15
2022-08-22T01:42:37.432Z,27.14
2022-08-22T01:43:59.343Z,27.13
2022-08-22T01:44:29.905Z,27.08
2022-08-22T01:45:13.075Z,27.03
2022-08-22T01:45:57.480Z,27.04
2022-08-22T01:46:44.216Z,27.08
2022-08-22T01:47:11.765Z,27.07
2022-08-22T01:47:40.130Z,27.06
2022-08-22T01:48:10.506Z,27.03
2022-08-22T01:48:40.628Z,27.06
2022-08-22T01:49:11.490Z,27.06
2022-08-22T01:49:44.102Z,27.04
2022-08-22T01:50:14.449Z,27.05
2022-08-22T01:50:43.327Z,27.08
2022-08-22T01:51:15.347Z,27.10
2022-08-22T01:51:45.993Z,27.11
2022-08-22T01:52:12.970Z,27.10
2022-08-22T01:52:40.384Z,27.08
2022-08-22T01:53:07.925Z,27.00
2022-08-22T01:53:43.161Z,27.06
2022-08-22T01:54:11.509Z,27.09
2022-08-22T01:54:46.086Z,27.08
2022-08-22T01:55:12.235Z,27.10
2022-08-22T01:55:39.780Z,27.10
2022-08-22T01:56:06.847Z,27.07
2022-08-22T01:56:35.915Z,27.09
2022-08-22T01:57:02.152Z,27.10
2022-08-22T01:57:25.945Z,27.07
2022-08-22T01:57:54.806Z,27.07
2022-08-22T01:58:20.047Z,27.07
2022-08-22T01:58:53.628Z,27.07
2022-08-22T01:59:33.774Z,27.04
2022-08-22T02:00:01.689Z,27.06
2022-08-22T02:00:35.333Z,27.10
2022-08-22T02:01:09.799Z,27.06
2022-08-22T02:01:53.817Z,27.05
2022-08-22T02:02:47.452Z,27.09
2022-08-22T02:03:22.496Z,27.11
2022-08-22T02:04:00.085Z,27.10
2022-08-22T02:04:34.413Z,27.12
2022-08-22T02:05:05.961Z,27.11
2022-08-22T02:05:32.174Z,27.12
2022-08-22T02:06:03.685Z,27.07
2022-08-22T02:06:36.037Z,27.06
2022-08-22T02:07:02.793Z,27.05
2022-08-22T02:07:31.873Z,27.02
2022-08-22T02:08:02.111Z,26.99
2022-08-22T02:08:33.788Z,27.01
2022-08-22T02:09:04.251Z,26.98
2022-08-22T02:09:39.861Z,26.98
2022-08-22T02:10:10.717Z,26.98
2022-08-22T02:10:52.028Z,27.00
2022-08-22T02:11:35.876Z,26.99
2022-08-22T02:12:02.533Z,27.02
2022-08-22T02:12:35.225Z,27.02
2022-08-22T02:13:09.095Z,27.03
2022-08-22T02:13:43.883Z,27.02
2022-08-22T02:14:17.249Z,27.00
2022-08-22T02:14:48.284Z,26.99
2022-08-22T02:15:19.628Z,26.96
2022-08-22T02:15:49.735Z,26.99
2022-08-22T02:16:18.944Z,27.00
2022-08-22T02:16:44.034Z,27.00
2022-08-22T02:17:17.317Z,26.98
2022-08-22T02:17:54.452Z,26.96
2022-08-22T02:18:24.186Z,26.94
2022-08-22T02:19:10.166Z,26.93
2022-08-22T02:19:39.792Z,26.93
2022-08-22T02:20:11.886Z,26.94
2022-08-22T02:20:39.280Z,26.96
2022-08-22T02:21:11.733Z,26.95
2022-08-22T02:21:45.972Z,26.96
2022-08-22T02:22:22.678Z,26.93
2022-08-22T02:22:57.863Z,26.92
2022-08-22T02:23:25.968Z,26.91
2022-08-22T02:23:57.095Z,26.90
2022-08-22T02:24:27.779Z,26.93
2022-08-22T02:25:00.965Z,26.95
2022-08-22T02:25:26.871Z,26.96
2022-08-22T02:25:55.844Z,26.96
2022-08-22T02:26:23.157Z,26.95
2022-08-22T02:26:53.740Z,26.92
2022-08-22T02:27:24.864Z,26.96
2022-08-22T02:27:57.481Z,26.96
2022-08-22T02:28:31.635Z,26.97
2022-08-22T02:28:59.178Z,26.97
2022-08-22T02:29:32.053Z,26.99
2022-08-22T02:30:07.152Z,26.98
2022-08-22T02:30:47.118Z,26.98
2022-08-22T02:31:16.802Z,27.00
2022-08-22T02:31:45.447Z,27.01
2022-08-22T02:32:16.528Z,26.99
2022-08-22T02:32:53.028Z,26.98
2022-08-22T02:33:25.796Z,26.98
2022-08-22T02:33:53.724Z,26.98
2022-08-22T02:34:25.636Z,26.94
2022-08-22T02:34:58.147Z,26.95
2022-08-22T02:35:29.561Z,26.95
2022-08-22T02:35:57.597Z,26.92
2022-08-22T02:36:26.310Z,26.89
2022-08-22T02:37:05.487Z,26.88
2022-08-22T02:37:35.766Z,26.85
2022-08-22T02:38:16.709Z,26.84
2022-08-22T02:38:49.119Z,26.83
2022-08-22T02:39:20.159Z,26.87
2022-08-22T02:39:49.364Z,26.88
2022-08-22T02:40:17.433Z,26.89
2022-08-22T02:40:48.641Z,26.90
2022-08-22T02:41:17.515Z,26.91
2022-08-22T02:41:52.485Z,26.90
2022-08-22T02:42:21.294Z,26.92
2022-08-22T02:42:50.117Z,26.91
2022-08-22T02:43:19.075Z,26.91
2022-08-22T02:43:49.746Z,26.91
2022-08-22T02:44:18.034Z,26.92
2022-08-22T02:44:48.818Z,26.93
2022-08-22T02:45:23.742Z,26.93
2022-08-22T02:45:51.795Z,26.95
2022-08-22T02:46:24.012Z,26.96
2022-08-22T02:46:52.986Z,26.96
2022-08-22T02:47:28.093Z,26.96
2022-08-22T02:47:57.897Z,26.97
2022-08-22T02:48:32.451Z,26.99
2022-08-22T02:49:03.022Z,26.94
2022-08-22T02:49:44.081Z,26.96
2022-08-22T02:50:18.244Z,26.93
2022-08-22T02:50:51.328Z,26.93
2022-08-22T02:51:21.931Z,26.94
2022-08-22T02:51:49.517Z,26.93
2022-08-22T02:52:15.633Z,26.93
2022-08-22T02:52:50.254Z,26.95
2022-08-22T02:53:17.425Z,26.95
2022-08-22T02:53:50.680Z,26.94
2022-08-22T02:54:19.405Z,26.91
2022-08-22T02:54:52.177Z,26.96
2022-08-22T02:55:19.963Z,26.96
2022-08-22T02:55:52.171Z,26.94
2022-08-22T02:56:19.635Z,26.95
2022-08-22T02:56:46.697Z,26.94
2022-08-22T02:57:14.515Z,26.95
2022-08-22T02:57:41.041Z,26.95
2022-08-22T02:58:08.768Z,26.93
2022-08-22T02:58:40.011Z,26.92
2022-08-22T02:59:16.815Z,26.95
2022-08-22T02:59:58.874Z,26.93
2022-08-22T03:00:32.262Z,26.94
2022-08-22T03:01:16.107Z,26.96
2022-08-22T03:01:41.177Z,26.94
2022-08-22T03:02:28.865Z,26.97
2022-08-22T03:03:03.458Z,26.93
2022-08-22T03:03:28.935Z,26.92
2022-08-22T03:04:12.481Z,26.91
2022-08-22T03:04:53.023Z,26.86
2022-08-22T03:05:23.248Z,26.84
2022-08-22T03:06:01.381Z,26.85
2022-08-22T03:06:39.630Z,26.83
2022-08-22T03:07:11.376Z,26.85
2022-08-22T03:07:39.897Z,26.80
2022-08-22T03:08:10.181Z,26.82
2022-08-22T03:08:42.786Z,26.83
2022-08-22T03:09:24.833Z,26.87
2022-08-22T03:09:51.178Z,26.85
2022-08-22T03:10:20.719Z,26.88
2022-08-22T03:10:49.081Z,26.88
2022-08-22T03:11:19.125Z,26.86
2022-08-22T03:11:46.192Z,26.89
2022-08-22T03:12:19.373Z,26.91
2022-08-22T03:12:48.733Z,26.89
2022-08-22T03:13:14.049Z,26.89
2022-08-22T03:13:48.579Z,26.90
2022-08-22T03:14:19.208Z,26.88
2022-08-22T03:14:44.981Z,26.90
2022-08-22T03:15:13.357Z,26.91
2022-08-22T03:15:48.406Z,26.91
2022-08-22T03:16:23.472Z,26.93
2022-08-22T03:17:02.389Z,26.93
2022-08-22T03:17:28.871Z,26.90
2022-08-22T03:18:01.292Z,26.89
2022-08-22T03:18:28.122Z,26.87
2022-08-22T03:18:59.495Z,26.85
2022-08-22T03:19:28.064Z,26.87
2022-08-22T03:20:03.875Z,26.85
2022-08-22T03:20:42.023Z,26.83
2022-08-22T03:21:17.635Z,26.80
2022-08-22T03:21:47.641Z,26.81
2022-08-22T03:22:16.800Z,26.82
2022-08-22T03:22:49.422Z,26.78
2022-08-22T03:23:23.062Z,26.77
2022-08-22T03:23:48.948Z,26.75
2022-08-22T03:24:16.205Z,26.76
2022-08-22T03:24:51.412Z,26.74
2022-08-22T03:25:22.331Z,26.72
2022-08-22T03:25:51.428Z,26.70
2022-08-22T03:26:19.221Z,26.69
2022-08-22T03:26:48.559Z,26.67
2022-08-22T03:27:31.364Z,26.69
2022-08-22T03:28:00.614Z,26.69
2022-08-22T03:28:31.541Z,26.67
2022-08-22T03:28:59.848Z,26.64
2022-08-22T03:29:27.761Z,26.63
2022-08-22T03:29:54.568Z,26.61
2022-08-22T03:30:20.868Z,26.62
2022-08-22T03:30:46.028Z,26.62
2022-08-22T03:31:13.597Z,26.63
2022-08-22T03:31:36.503Z,26.60
2022-08-22T03:32:08.872Z,26.59
2022-08-22T03:32:51.862Z,26.59
2022-08-22T03:33:17.829Z,26.55
2022-08-22T03:33:39.829Z,26.57
2022-08-22T03:34:22.481Z,26.57
2022-08-22T03:35:02.005Z,26.56
2022-08-22T03:35:37.991Z,26.56
2022-08-22T03:36:07.270Z,26.54
2022-08-22T03:36:31.384Z,26.55
2022-08-22T03:37:04.609Z,26.55
2022-08-22T03:37:37.668Z,26.55
2022-08-22T03:38:18.713Z,26.54
2022-08-22T03:38:52.104Z,26.61
2022-08-22T03:39:18.629Z,26.63
2022-08-22T03:39:55.851Z,26.64
2022-08-22T03:40:31.632Z,26.63
2022-08-22T03:41:19.021Z,26.61
2022-08-22T03:42:05.090Z,26.58
2022-08-22T03:43:05.439Z,26.56
2022-08-22T03:44:12.749Z,26.52
2022-08-22T03:45:10.721Z,26.54
2022-08-22T03:46:13.591Z,26.53
2022-08-22T03:47:18.229Z,26.51
2022-08-22T03:48:19.171Z,26.50
2022-08-22T03:49:08.391Z,26.50
2022-08-22T03:49:59.467Z,26.50
2022-08-22T03:50:54.590Z,26.48
2022-08-22T03:51:33.453Z,26.53
2022-08-22T03:52:10.629Z,26.54
2022-08-22T03:53:18.983Z,26.56
2022-08-22T03:54:14.874Z,26.50
2022-08-22T03:54:56.188Z,26.53
2022-08-22T03:55:32.577Z,26.49
2022-08-22T03:56:35.652Z,26.49
2022-08-22T03:57:23.195Z,26.48
2022-08-22T03:58:02.929Z,26.47
2022-08-22T03:58:59.417Z,26.48
2022-08-22T03:59:55.376Z,26.48
2022-08-22T04:00:30.638Z,26.49
2022-08-22T04:01:38.112Z,26.48
2022-08-22T04:02:42.439Z,26.46
2022-08-22T04:03:21.772Z,26.49
2022-08-22T04:04:15.541Z,26.49
2022-08-22T04:05:10.272Z,26.49
2022-08-22T04:06:13.350Z,26.48
2022-08-22T04:07:08.891Z,26.47
2022-08-22T04:08:25.969Z,26.47
2022-08-22T04:09:14.890Z,26.44
2022-08-22T04:10:13.159Z,26.44
2022-08-22T04:11:02.761Z,26.40
2022-08-22T04:12:03.973Z,26.44
2022-08-22T04:13:02.693Z,26.45
2022-08-22T04:13:53.976Z,26.44
2022-08-22T04:14:48.789Z,26.42
2022-08-22T04:15:31.231Z,26.39
2022-08-22T04:16:21.124Z,26.42
2022-08-22T04:17:05.581Z,26.44
2022-08-22T04:18:13.644Z,26.40
2022-08-22T04:18:57.520Z,26.39
2022-08-22T04:19:49.889Z,26.34
2022-08-22T04:20:29.229Z,26.37
2022-08-22T04:21:16.512Z,26.39
2022-08-22T04:22:09.004Z,26.41
2022-08-22T04:23:06.537Z,26.39
2022-08-22T04:23:51.116Z,26.43
2022-08-22T04:24:31.313Z,26.43
2022-08-22T04:25:01.114Z,26.39
2022-08-22T04:25:32.254Z,26.41
2022-08-22T04:25:59.428Z,26.43
2022-08-22T04:26:33.220Z,26.42
2022-08-22T04:27:00.795Z,26.42
2022-08-22T04:27:27.549Z,26.43
2022-08-22T04:27:55.729Z,26.41
2022-08-22T04:28:25.644Z,26.40
2022-08-22T04:28:52.449Z,26.40
2022-08-22T04:29:20.139Z,26.38
2022-08-22T04:29:49.051Z,26.39
2022-08-22T04:30:19.290Z,26.39
2022-08-22T04:30:48.111Z,26.38
2022-08-22T04:31:11.788Z,26.32
2022-08-22T04:31:41.545Z,26.32
2022-08-22T04:32:12.815Z,26.34
2022-08-22T04:32:42.276Z,26.34
2022-08-22T04:33:09.482Z,26.32
2022-08-22T04:33:37.807Z,26.31
2022-08-22T04:34:04.457Z,26.31
2022-08-22T04:34:33.326Z,26.29
2022-08-22T04:35:06.907Z,26.27
2022-08-22T04:35:32.816Z,26.27
2022-08-22T04:36:02.986Z,26.27
2022-08-22T04:36:31.856Z,26.26
2022-08-22T04:36:58.509Z,26.29
2022-08-22T04:37:25.418Z,26.31
2022-08-22T04:37:53.722Z,26.31
2022-08-22T04:38:20.538Z,26.32
2022-08-22T04:38:48.696Z,26.34
2022-08-22T04:39:18.389Z,26.33
2022-08-22T04:39:48.278Z,26.32
2022-08-22T04:40:21.809Z,26.30
2022-08-22T04:40:48.284Z,26.27
2022-08-22T04:41:13.903Z,26.26
2022-08-22T04:41:46.781Z,26.25
2022-08-22T04:42:32.230Z,26.29
2022-08-22T04:42:58.897Z,26.26
2022-08-22T04:43:28.983Z,26.28
2022-08-22T04:43:56.696Z,26.29
2022-08-22T04:44:23.979Z,26.29
2022-08-22T04:44:53.698Z,26.30
2022-08-22T04:45:18.624Z,26.31
2022-08-22T04:45:46.237Z,26.33
2022-08-22T04:46:16.128Z,26.30
2022-08-22T04:46:45.719Z,26.30
2022-08-22T04:47:17.881Z,26.32
2022-08-22T04:47:44.161Z,26.34
2022-08-22T04:48:16.726Z,26.38
2022-08-22T04:48:45.108Z,26.40
2022-08-22T04:49:13.357Z,26.37
2022-08-22T04:49:39.535Z,26.39
2022-08-22T04:50:06.871Z,26.39
2022-08-22T04:50:38.023Z,26.37
2022-08-22T04:51:10.668Z,26.37
2022-08-22T04:51:39.375Z,26.40
2022-08-22T04:52:09.384Z,26.40
2022-08-22T04:52:46.915Z,26.36
2022-08-22T04:53:23.363Z,26.33
2022-08-22T04:54:24.349Z,26.32
2022-08-22T04:54:56.436Z,26.31
2022-08-22T04:55:32.107Z,26.30
2022-08-22T04:56:07.779Z,26.34
2022-08-22T04:56:42.199Z,26.37
2022-08-22T04:57:17.526Z,26.38
2022-08-22T04:57:54.743Z,26.35
2022-08-22T04:58:31.607Z,26.38
2022-08-22T04:58:59.372Z,26.40
2022-08-22T04:59:21.920Z,26.36
2022-08-22T04:59:46.135Z,26.39
2022-08-22T05:00:10.951Z,26.41
2022-08-22T05:00:39.652Z,26.40
2022-08-22T05:01:13.385Z,26.38
2022-08-22T05:01:42.582Z,26.35
2022-08-22T05:02:09.027Z,26.34
2022-08-22T05:02:31.809Z,26.34
2022-08-22T05:02:57.831Z,26.34
2022-08-22T05:03:25.318Z,26.32
2022-08-22T05:03:55.698Z,26.31
2022-08-22T05:04:22.887Z,26.28
2022-08-22T05:04:48.557Z,26.29
2022-08-22T05:05:15.011Z,26.26
2022-08-22T05:05:40.675Z,26.29
2022-08-22T05:06:07.292Z,26.28
2022-08-22T05:06:38.302Z,26.26
2022-08-22T05:07:07.266Z,26.29
2022-08-22T05:07:36.011Z,26.28
2022-08-22T05:08:01.090Z,26.29
2022-08-22T05:08:27.078Z,26.18
2022-08-22T05:08:54.077Z,26.27
2022-08-22T05:09:20.878Z,26.27
2022-08-22T05:09:47.579Z,26.28
2022-08-22T05:10:16.180Z,26.30
2022-08-22T05:10:46.588Z,26.31
2022-08-22T05:11:10.770Z,26.28
2022-08-22T05:11:37.034Z,26.29
2022-08-22T05:12:09.985Z,26.30
2022-08-22T05:12:36.285Z,26.34
2022-08-22T05:13:06.713Z,26.34
2022-08-22T05:13:33.419Z,26.34
2022-08-22T05:13:58.835Z,26.33
2022-08-22T05:14:27.990Z,26.37
2022-08-22T05:14:55.109Z,26.37
2022-08-22T05:15:23.900Z,26.40
2022-08-22T05:15:48.604Z,26.40
2022-08-22T05:16:15.791Z,26.40
2022-08-22T05:16:41.686Z,26.43
2022-08-22T05:17:07.526Z,26.44
2022-08-22T05:17:32.147Z,26.41
2022-08-22T05:17:59.210Z,26.42
2022-08-22T05:18:25.910Z,26.45
2022-08-22T05:18:55.012Z,26.44
2022-08-22T05:19:27.083Z,26.44
2022-08-22T05:19:55.976Z,26.39
2022-08-22T05:20:23.272Z,26.39
2022-08-22T05:20:47.421Z,26.42
2022-08-22T05:21:14.407Z,26.41
2022-08-22T05:21:41.428Z,26.40
2022-08-22T05:22:04.891Z,26.38
2022-08-22T05:22:30.637Z,26.38
2022-08-22T05:22:58.293Z,26.40
2022-08-22T05:23:24.560Z,26.39
2022-08-22T05:23:50.408Z,26.38
2022-08-22T05:24:21.525Z,26.39
2022-08-22T05:24:47.883Z,26.37
2022-08-22T05:25:13.217Z,26.39
2022-08-22T05:25:39.248Z,26.39
2022-08-22T05:26:05.072Z,26.39
2022-08-22T05:26:30.007Z,26.37
2022-08-22T05:26:56.243Z,26.35
2022-08-22T05:27:21.089Z,26.38
2022-08-22T05:27:48.603Z,26.36
2022-08-22T05:28:21.771Z,26.37
2022-08-22T05:28:52.947Z,26.39
2022-08-22T05:29:21.817Z,26.37
2022-08-22T05:29:48.956Z,26.37
2022-08-22T05:30:16.332Z,26.37
2022-08-22T05:30:39.282Z,26.37
2022-08-22T05:31:05.708Z,26.42
2022-08-22T05:31:31.901Z,26.44
2022-08-22T05:31:57.194Z,26.41
2022-08-22T05:32:24.969Z,26.43
2022-08-22T05:32:50.342Z,26.44
2022-08-22T05:33:19.386Z,26.45
2022-08-22T05:33:45.035Z,26.44
2022-08-22T05:34:12.671Z,26.42
2022-08-22T05:34:38.683Z,26.39
2022-08-22T05:35:03.301Z,26.42
2022-08-22T05:35:39.816Z,26.44
2022-08-22T05:36:06.460Z,26.49
2022-08-22T05:36:33.740Z,26.49
2022-08-22T05:36:58.149Z,26.49
2022-08-22T05:37:24.922Z,26.49
2022-08-22T05:37:53.161Z,26.50
2022-08-22T05:38:21.301Z,26.49
2022-08-22T05:38:48.337Z,26.51
2022-08-22T05:39:13.529Z,26.53
2022-08-22T05:39:40.125Z,26.53
2022-08-22T05:40:02.451Z,26.56
2022-08-22T05:40:27.975Z,26.56
2022-08-22T05:40:55.801Z,26.53
2022-08-22T05:41:23.649Z,26.57
2022-08-22T05:41:46.621Z,26.57
2022-08-22T05:42:15.512Z,26.57
2022-08-22T05:42:38.337Z,26.55
2022-08-22T05:43:00.123Z,26.51
2022-08-22T05:43:24.336Z,26.50
2022-08-22T05:43:48.748Z,26.51
2022-08-22T05:44:25.156Z,26.51
2022-08-22T05:44:46.838Z,26.49
2022-08-22T05:45:12.277Z,26.54
2022-08-22T05:45:36.355Z,26.52
2022-08-22T05:45:59.493Z,26.54
2022-08-22T05:46:26.912Z,26.56
2022-08-22T05:46:54.737Z,26.55
2022-08-22T05:47:23.054Z,26.55
2022-08-22T05:47:49.223Z,26.54
2022-08-22T05:48:17.758Z,26.56
2022-08-22T05:48:43.753Z,26.56
2022-08-22T05:49:13.992Z,26.58
2022-08-22T05:49:39.797Z,26.62
2022-08-22T05:50:05.013Z,26.62
2022-08-22T05:50:36.855Z,26.65
2022-08-22T05:51:09.523Z,26.64
2022-08-22T05:51:40.274Z,26.64
2022-08-22T05:52:10.698Z,26.63
2022-08-22T05:52:56.641Z,26.65
2022-08-22T05:53:30.571Z,26.67
2022-08-22T05:54:02.434Z,26.70
2022-08-22T05:54:34.485Z,26.70
2022-08-22T05:55:06.553Z,26.72
2022-08-22T05:55:31.784Z,26.72
2022-08-22T05:55:59.492Z,26.71
2022-08-22T05:56:31.644Z,26.72
2022-08-22T05:56:58.680Z,26.69
2022-08-22T05:57:28.813Z,26.70
2022-08-22T05:57:58.423Z,26.69
2022-08-22T05:58:41.321Z,26.67
2022-08-22T05:59:09.108Z,26.68
2022-08-22T05:59:34.583Z,26.67
2022-08-22T06:00:04.757Z,26.70
2022-08-22T06:00:39.294Z,26.70
2022-08-22T06:01:13.945Z,26.72
2022-08-22T06:01:39.790Z,26.73
2022-08-22T06:02:07.500Z,26.73
2022-08-22T06:02:48.618Z,26.70
2022-08-22T06:03:19.719Z,26.69
2022-08-22T06:03:52.549Z,26.74
2022-08-22T06:04:20.209Z,26.74
2022-08-22T06:04:50.072Z,26.74
2022-08-22T06:05:12.652Z,26.77
2022-08-22T06:05:40.360Z,26.78
2022-08-22T06:06:10.800Z,26.76
2022-08-22T06:06:40.847Z,26.78
2022-08-22T06:07:07.284Z,26.76
2022-08-22T06:07:34.749Z,26.75
2022-08-22T06:08:03.625Z,26.75
2022-08-22T06:08:32.286Z,26.74
2022-08-22T06:09:01.295Z,26.77
2022-08-22T06:09:34.846Z,26.75
2022-08-22T06:10:15.361Z,26.79
2022-08-22T06:10:41.488Z,26.74
2022-08-22T06:11:09.193Z,26.70
2022-08-22T06:11:37.732Z,26.65
2022-08-22T06:12:06.506Z,26.68
2022-08-22T06:12:35.246Z,26.71
2022-08-22T06:13:03.032Z,26.74
2022-08-22T06:13:33.041Z,26.74
2022-08-22T06:14:03.966Z,26.71
2022-08-22T06:14:31.472Z,26.72
2022-08-22T06:15:02.508Z,26.76
2022-08-22T06:15:41.902Z,26.78
2022-08-22T06:16:10.464Z,26.76
2022-08-22T06:16:40.496Z,26.80
2022-08-22T06:17:15.728Z,26.79
2022-08-22T06:17:41.080Z,26.79
2022-08-22T06:18:10.348Z,26.80
2022-08-22T06:18:35.739Z,26.84
2022-08-22T06:18:59.191Z,26.83
2022-08-22T06:19:21.536Z,26.84
2022-08-22T06:19:47.016Z,26.88
2022-08-22T06:20:13.397Z,26.84
2022-08-22T06:20:40.528Z,26.83
2022-08-22T06:21:06.595Z,26.82
2022-08-22T06:21:35.442Z,26.82
2022-08-22T06:22:05.973Z,26.88
2022-08-22T06:22:34.905Z,26.90
2022-08-22T06:23:01.030Z,26.90
2022-08-22T06:23:27.958Z,26.92
2022-08-22T06:23:56.658Z,26.91
2022-08-22T06:24:22.781Z,26.90
2022-08-22T06:24:46.097Z,26.89
2022-08-22T06:25:13.777Z,26.90
2022-08-22T06:25:39.393Z,26.92
2022-08-22T06:26:01.635Z,26.92
2022-08-22T06:26:26.892Z,26.91
2022-08-22T06:26:51.912Z,26.95
2022-08-22T06:27:17.115Z,26.93
2022-08-22T06:27:39.492Z,26.95
2022-08-22T06:28:05.457Z,26.97
2022-08-22T06:28:33.875Z,26.98
2022-08-22T06:29:00.498Z,26.95
2022-08-22T06:29:36.044Z,27.02
2022-08-22T06:30:00.203Z,27.05
2022-08-22T06:30:25.407Z,27.04
2022-08-22T06:30:51.804Z,27.08
2022-08-22T06:31:19.313Z,27.05
2022-08-22T06:31:44.478Z,27.09
2022-08-22T06:32:12.144Z,27.10
2022-08-22T06:32:59.977Z,27.09
2022-08-22T06:33:28.579Z,27.10
2022-08-22T06:34:00.397Z,27.08
2022-08-22T06:34:25.992Z,27.08
2022-08-22T06:34:49.122Z,27.05
2022-08-22T06:35:18.013Z,27.06
2022-08-22T06:36:02.863Z,27.05
2022-08-22T06:36:32.299Z,27.04
2022-08-22T06:36:57.318Z,27.03
2022-08-22T06:37:29.022Z,27.03
2022-08-22T06:37:54.136Z,27.01
2022-08-22T06:38:16.631Z,27.01
2022-08-22T06:38:53.370Z,27.02
2022-08-22T06:39:19.700Z,27.02
2022-08-22T06:39:45.262Z,27.03
2022-08-22T06:40:10.674Z,27.02
2022-08-22T06:40:32.520Z,27.00
2022-08-22T06:40:57.966Z,27.00
2022-08-22T06:41:22.188Z,27.04
2022-08-22T06:41:50.725Z,27.05
2022-08-22T06:42:17.185Z,27.06
2022-08-22T06:42:43.868Z,27.06
2022-08-22T06:43:06.253Z,27.10
2022-08-22T06:43:34.084Z,27.12
2022-08-22T06:43:58.771Z,27.16
2022-08-22T06:44:24.021Z,27.18
2022-08-22T06:44:50.015Z,27.19
2022-08-22T06:45:17.362Z,27.21
2022-08-22T06:45:41.883Z,27.16
2022-08-22T06:46:04.762Z,27.20
2022-08-22T06:46:29.059Z,27.22
2022-08-22T06:46:58.575Z,27.18
2022-08-22T06:47:25.247Z,27.18
2022-08-22T06:47:53.575Z,27.22
2022-08-22T06:48:18.395Z,27.21
2022-08-22T06:48:41.447Z,27.21
2022-08-22T06:49:05.323Z,27.23
2022-08-22T06:49:29.356Z,27.23
2022-08-22T06:49:57.546Z,27.25
2022-08-22T06:50:24.408Z,27.25
2022-08-22T06:50:51.799Z,27.24
2022-08-22T06:51:17.624Z,27.25
2022-08-22T06:51:39.643Z,27.25
2022-08-22T06:52:05.575Z,27.22
2022-08-22T06:52:33.950Z,27.18
2022-08-22T06:52:59.854Z,27.18
2022-08-22T06:53:25.807Z,27.18
2022-08-22T06:53:53.652Z,27.19
2022-08-22T06:54:20.039Z,27.19
2022-08-22T06:54:46.803Z,27.21
2022-08-22T06:55:09.776Z,27.21
2022-08-22T06:55:33.319Z,27.18
2022-08-22T06:55:57.190Z,27.17
2022-08-22T06:56:22.007Z,27.18
2022-08-22T06:56:46.706Z,27.18
2022-08-22T06:57:27.921Z,27.18
2022-08-22T06:57:55.390Z,27.18
2022-08-22T06:58:20.485Z,27.19
2022-08-22T06:58:46.793Z,27.19